sensor_id;sensor_type;location;lat;lon;timestamp;P1;durP1;ratioP1;P2;durP2;ratioP2
24008;SDS011;12217;50.792;4.372;2023-06-22T00:02:15;5.22;;;4.00;;
24008;SDS011;12217;50.792;4.372;2023-06-22T00:04:40;6.30;;;4.53;;
24008;SDS011;12217;50.792;4.372;2023-06-22T00:07:06;4.88;;;4.10;;
24008;SDS011;12217;50.792;4.372;2023-06-22T00:09:32;4.70;;;4.10;;
24008;SDS011;12217;50.792;4.372;2023-06-22T00:11:58;4.25;;;3.50;;
24008;SDS011;12217;50.792;4.372;2023-06-22T00:14:24;6.25;;;3.70;;
24008;SDS011;12217;50.792;4.372;2023-06-22T00:16:49;4.75;;;3.40;;
24008;SDS011;12217;50.792;4.372;2023-06-22T00:19:19;5.13;;;3.75;;
24008;SDS011;12217;50.792;4.372;2023-06-22T00:21:46;4.93;;;3.28;;
24008;SDS011;12217;50.792;4.372;2023-06-22T00:24:12;3.50;;;3.20;;
24008;SDS011;12217;50.792;4.372;2023-06-22T00:26:38;5.32;;;3.38;;
24008;SDS011;12217;50.792;4.372;2023-06-22T00:29:04;4.05;;;3.38;;
24008;SDS011;12217;50.792;4.372;2023-06-22T00:31:30;3.60;;;3.30;;
24008;SDS011;12217;50.792;4.372;2023-06-22T00:33:55;4.03;;;3.67;;
24008;SDS011;12217;50.792;4.372;2023-06-22T00:36:21;6.57;;;4.13;;
24008;SDS011;12217;50.792;4.372;2023-06-22T00:38:47;4.38;;;3.50;;
24008;SDS011;12217;50.792;4.372;2023-06-22T00:41:15;6.30;;;3.55;;
24008;SDS011;12217;50.792;4.372;2023-06-22T00:43:41;4.72;;;3.78;;
24008;SDS011;12217;50.792;4.372;2023-06-22T00:46:07;6.43;;;3.58;;
24008;SDS011;12217;50.792;4.372;2023-06-22T00:48:33;5.15;;;3.28;;
24008;SDS011;12217;50.792;4.372;2023-06-22T00:50:59;4.00;;;3.40;;
24008;SDS011;12217;50.792;4.372;2023-06-22T00:53:24;3.72;;;3.10;;
24008;SDS011;12217;50.792;4.372;2023-06-22T00:55:50;4.18;;;3.17;;
24008;SDS011;12217;50.792;4.372;2023-06-22T00:58:16;4.22;;;3.08;;
24008;SDS011;12217;50.792;4.372;2023-06-22T01:00:46;5.53;;;3.20;;
24008;SDS011;12217;50.792;4.372;2023-06-22T01:03:12;5.15;;;4.03;;
24008;SDS011;12217;50.792;4.372;2023-06-22T01:05:38;4.10;;;3.50;;
24008;SDS011;12217;50.792;4.372;2023-06-22T01:08:23;5.25;;;4.00;;
24008;SDS011;12217;50.792;4.372;2023-06-22T01:16:29;4.20;;;3.80;;
24008;SDS011;12217;50.792;4.372;2023-06-22T01:21:23;5.18;;;3.65;;
24008;SDS011;12217;50.792;4.372;2023-06-22T01:26:37;3.95;;;3.65;;
24008;SDS011;12217;50.792;4.372;2023-06-22T01:29:04;4.00;;;3.70;;
24008;SDS011;12217;50.792;4.372;2023-06-22T01:31:32;5.90;;;4.10;;
24008;SDS011;12217;50.792;4.372;2023-06-22T01:34:00;5.93;;;3.97;;
24008;SDS011;12217;50.792;4.372;2023-06-22T01:36:28;4.05;;;3.63;;
24008;SDS011;12217;50.792;4.372;2023-06-22T01:38:55;5.03;;;4.07;;
24008;SDS011;12217;50.792;4.372;2023-06-22T01:41:24;4.80;;;4.38;;
24008;SDS011;12217;50.792;4.372;2023-06-22T01:43:51;7.85;;;4.45;;
24008;SDS011;12217;50.792;4.372;2023-06-22T01:46:19;5.40;;;4.50;;
24008;SDS011;12217;50.792;4.372;2023-06-22T01:48:46;7.35;;;4.45;;
24008;SDS011;12217;50.792;4.372;2023-06-22T01:51:12;11.30;;;4.35;;
24008;SDS011;12217;50.792;4.372;2023-06-22T01:53:38;6.72;;;5.45;;
24008;SDS011;12217;50.792;4.372;2023-06-22T01:56:04;5.45;;;4.25;;
24008;SDS011;12217;50.792;4.372;2023-06-22T01:58:30;5.65;;;4.35;;
24008;SDS011;12217;50.792;4.372;2023-06-22T02:00:59;5.93;;;4.45;;
24008;SDS011;12217;50.792;4.372;2023-06-22T02:03:43;5.13;;;4.43;;
24008;SDS011;12217;50.792;4.372;2023-06-22T02:06:17;5.25;;;4.30;;
24008;SDS011;12217;50.792;4.372;2023-06-22T02:08:49;4.82;;;3.97;;
24008;SDS011;12217;50.792;4.372;2023-06-22T02:11:20;7.05;;;4.82;;
24008;SDS011;12217;50.792;4.372;2023-06-22T02:13:46;8.20;;;4.80;;
24008;SDS011;12217;50.792;4.372;2023-06-22T02:16:13;5.45;;;4.60;;
24008;SDS011;12217;50.792;4.372;2023-06-22T02:18:47;5.20;;;4.43;;
24008;SDS011;12217;50.792;4.372;2023-06-22T02:21:19;6.90;;;4.70;;
24008;SDS011;12217;50.792;4.372;2023-06-22T02:23:45;4.63;;;4.22;;
24008;SDS011;12217;50.792;4.372;2023-06-22T02:26:11;7.22;;;5.30;;
24008;SDS011;12217;50.792;4.372;2023-06-22T02:28:38;5.60;;;4.70;;
24008;SDS011;12217;50.792;4.372;2023-06-22T02:31:03;6.75;;;4.75;;
24008;SDS011;12217;50.792;4.372;2023-06-22T02:33:29;5.38;;;4.88;;
24008;SDS011;12217;50.792;4.372;2023-06-22T02:35:55;7.15;;;5.40;;
24008;SDS011;12217;50.792;4.372;2023-06-22T02:38:20;8.38;;;6.07;;
24008;SDS011;12217;50.792;4.372;2023-06-22T02:40:48;6.05;;;5.22;;
24008;SDS011;12217;50.792;4.372;2023-06-22T02:43:14;5.65;;;5.07;;
24008;SDS011;12217;50.792;4.372;2023-06-22T02:45:39;7.60;;;5.25;;
24008;SDS011;12217;50.792;4.372;2023-06-22T02:48:05;7.13;;;5.22;;
24008;SDS011;12217;50.792;4.372;2023-06-22T02:50:31;6.05;;;5.32;;
24008;SDS011;12217;50.792;4.372;2023-06-22T02:52:56;6.50;;;4.80;;
24008;SDS011;12217;50.792;4.372;2023-06-22T02:55:23;5.57;;;5.00;;
24008;SDS011;12217;50.792;4.372;2023-06-22T02:57:48;5.93;;;4.88;;
24008;SDS011;12217;50.792;4.372;2023-06-22T03:00:17;7.65;;;5.28;;
24008;SDS011;12217;50.792;4.372;2023-06-22T03:02:45;6.68;;;5.10;;
24008;SDS011;12217;50.792;4.372;2023-06-22T03:05:15;8.63;;;5.10;;
24008;SDS011;12217;50.792;4.372;2023-06-22T03:07:43;6.22;;;5.07;;
24008;SDS011;12217;50.792;4.372;2023-06-22T03:10:09;5.90;;;5.10;;
24008;SDS011;12217;50.792;4.372;2023-06-22T03:12:37;6.28;;;5.63;;
24008;SDS011;12217;50.792;4.372;2023-06-22T03:15:06;7.70;;;5.80;;
24008;SDS011;12217;50.792;4.372;2023-06-22T03:17:33;8.45;;;5.90;;
24008;SDS011;12217;50.792;4.372;2023-06-22T03:20:00;7.38;;;5.78;;
24008;SDS011;12217;50.792;4.372;2023-06-22T03:22:33;8.10;;;6.03;;
24008;SDS011;12217;50.792;4.372;2023-06-22T03:25:03;6.25;;;5.22;;
24008;SDS011;12217;50.792;4.372;2023-06-22T03:27:30;8.40;;;5.95;;
24008;SDS011;12217;50.792;4.372;2023-06-22T03:29:57;6.45;;;5.65;;
24008;SDS011;12217;50.792;4.372;2023-06-22T03:32:23;6.47;;;5.60;;
24008;SDS011;12217;50.792;4.372;2023-06-22T03:34:49;7.40;;;5.65;;
24008;SDS011;12217;50.792;4.372;2023-06-22T03:37:14;7.25;;;5.57;;
24008;SDS011;12217;50.792;4.372;2023-06-22T03:39:41;8.52;;;5.75;;
24008;SDS011;12217;50.792;4.372;2023-06-22T03:42:07;7.45;;;6.40;;
24008;SDS011;12217;50.792;4.372;2023-06-22T03:44:34;7.90;;;5.95;;
24008;SDS011;12217;50.792;4.372;2023-06-22T03:47:01;6.85;;;5.70;;
24008;SDS011;12217;50.792;4.372;2023-06-22T03:49:27;6.85;;;5.47;;
24008;SDS011;12217;50.792;4.372;2023-06-22T03:51:53;7.13;;;6.13;;
24008;SDS011;12217;50.792;4.372;2023-06-22T03:54:18;6.38;;;5.50;;
24008;SDS011;12217;50.792;4.372;2023-06-22T03:56:44;6.53;;;5.43;;
24008;SDS011;12217;50.792;4.372;2023-06-22T03:59:10;7.70;;;5.70;;
24008;SDS011;12217;50.792;4.372;2023-06-22T04:01:35;6.25;;;5.55;;
24008;SDS011;12217;50.792;4.372;2023-06-22T04:04:01;7.10;;;6.25;;
24008;SDS011;12217;50.792;4.372;2023-06-22T04:06:27;8.10;;;6.20;;
24008;SDS011;12217;50.792;4.372;2023-06-22T04:08:53;7.30;;;6.60;;
24008;SDS011;12217;50.792;4.372;2023-06-22T04:11:19;7.93;;;7.00;;
24008;SDS011;12217;50.792;4.372;2023-06-22T04:13:44;9.63;;;6.57;;
24008;SDS011;12217;50.792;4.372;2023-06-22T04:16:10;8.05;;;6.75;;
24008;SDS011;12217;50.792;4.372;2023-06-22T04:18:38;9.63;;;7.20;;
24008;SDS011;12217;50.792;4.372;2023-06-22T04:21:04;9.02;;;7.10;;
24008;SDS011;12217;50.792;4.372;2023-06-22T04:23:30;9.05;;;6.90;;
24008;SDS011;12217;50.792;4.372;2023-06-22T04:25:55;7.55;;;6.60;;
24008;SDS011;12217;50.792;4.372;2023-06-22T04:28:21;8.23;;;6.60;;
24008;SDS011;12217;50.792;4.372;2023-06-22T04:30:47;7.28;;;6.55;;
24008;SDS011;12217;50.792;4.372;2023-06-22T04:33:13;7.32;;;6.60;;
24008;SDS011;12217;50.792;4.372;2023-06-22T04:35:39;7.88;;;6.53;;
24008;SDS011;12217;50.792;4.372;2023-06-22T04:38:06;7.30;;;6.60;;
24008;SDS011;12217;50.792;4.372;2023-06-22T04:40:32;11.35;;;6.55;;
24008;SDS011;12217;50.792;4.372;2023-06-22T04:42:58;7.93;;;6.88;;
24008;SDS011;12217;50.792;4.372;2023-06-22T04:45:27;8.80;;;6.82;;
24008;SDS011;12217;50.792;4.372;2023-06-22T04:47:53;10.85;;;7.18;;
24008;SDS011;12217;50.792;4.372;2023-06-22T04:50:18;9.50;;;7.28;;
24008;SDS011;12217;50.792;4.372;2023-06-22T04:52:46;9.93;;;7.95;;
24008;SDS011;12217;50.792;4.372;2023-06-22T04:55:12;8.38;;;7.30;;
24008;SDS011;12217;50.792;4.372;2023-06-22T04:57:43;9.45;;;8.35;;
24008;SDS011;12217;50.792;4.372;2023-06-22T05:00:15;10.18;;;7.93;;
24008;SDS011;12217;50.792;4.372;2023-06-22T05:02:43;9.25;;;8.05;;
24008;SDS011;12217;50.792;4.372;2023-06-22T05:05:10;9.85;;;8.73;;
24008;SDS011;12217;50.792;4.372;2023-06-22T05:07:42;11.60;;;8.68;;
24008;SDS011;12217;50.792;4.372;2023-06-22T05:10:13;11.27;;;9.23;;
24008;SDS011;12217;50.792;4.372;2023-06-22T05:12:39;13.25;;;9.70;;
24008;SDS011;12217;50.792;4.372;2023-06-22T05:15:06;13.63;;;10.07;;
24008;SDS011;12217;50.792;4.372;2023-06-22T05:17:35;13.95;;;10.75;;
24008;SDS011;12217;50.792;4.372;2023-06-22T05:20:01;15.25;;;11.75;;
24008;SDS011;12217;50.792;4.372;2023-06-22T05:22:31;13.02;;;11.63;;
24008;SDS011;12217;50.792;4.372;2023-06-22T05:24:56;20.45;;;12.88;;
24008;SDS011;12217;50.792;4.372;2023-06-22T05:27:22;14.98;;;12.38;;
24008;SDS011;12217;50.792;4.372;2023-06-22T05:29:47;14.23;;;12.40;;
24008;SDS011;12217;50.792;4.372;2023-06-22T05:32:13;17.00;;;13.38;;
24008;SDS011;12217;50.792;4.372;2023-06-22T05:34:39;15.77;;;13.05;;
24008;SDS011;12217;50.792;4.372;2023-06-22T05:37:05;16.30;;;13.15;;
24008;SDS011;12217;50.792;4.372;2023-06-22T05:39:31;17.00;;;14.43;;
24008;SDS011;12217;50.792;4.372;2023-06-22T05:41:57;16.98;;;15.15;;
24008;SDS011;12217;50.792;4.372;2023-06-22T05:44:22;19.55;;;17.25;;
24008;SDS011;12217;50.792;4.372;2023-06-22T05:46:48;20.08;;;17.88;;
24008;SDS011;12217;50.792;4.372;2023-06-22T05:49:14;17.60;;;15.80;;
24008;SDS011;12217;50.792;4.372;2023-06-22T05:51:43;20.02;;;17.73;;
24008;SDS011;12217;50.792;4.372;2023-06-22T05:54:08;19.85;;;17.73;;
24008;SDS011;12217;50.792;4.372;2023-06-22T05:56:35;16.55;;;13.88;;
24008;SDS011;12217;50.792;4.372;2023-06-22T05:59:00;19.38;;;17.35;;
24008;SDS011;12217;50.792;4.372;2023-06-22T06:01:26;28.50;;;19.13;;
24008;SDS011;12217;50.792;4.372;2023-06-22T06:03:52;21.45;;;19.27;;
24008;SDS011;12217;50.792;4.372;2023-06-22T06:06:20;22.65;;;19.05;;
24008;SDS011;12217;50.792;4.372;2023-06-22T06:08:47;20.27;;;18.17;;
24008;SDS011;12217;50.792;4.372;2023-06-22T06:11:14;21.73;;;18.52;;
24008;SDS011;12217;50.792;4.372;2023-06-22T06:13:43;19.27;;;17.27;;
24008;SDS011;12217;50.792;4.372;2023-06-22T06:16:08;22.70;;;19.52;;
24008;SDS011;12217;50.792;4.372;2023-06-22T06:18:34;22.92;;;18.15;;
24008;SDS011;12217;50.792;4.372;2023-06-22T06:20:59;21.42;;;18.48;;
24008;SDS011;12217;50.792;4.372;2023-06-22T06:23:25;25.58;;;18.65;;
24008;SDS011;12217;50.792;4.372;2023-06-22T06:25:52;19.30;;;17.30;;
24008;SDS011;12217;50.792;4.372;2023-06-22T06:28:17;21.90;;;18.17;;
24008;SDS011;12217;50.792;4.372;2023-06-22T06:30:43;21.98;;;18.38;;
24008;SDS011;12217;50.792;4.372;2023-06-22T06:33:08;21.17;;;16.05;;
24008;SDS011;12217;50.792;4.372;2023-06-22T06:35:34;20.73;;;18.50;;
24008;SDS011;12217;50.792;4.372;2023-06-22T06:38:00;20.63;;;15.43;;
24008;SDS011;12217;50.792;4.372;2023-06-22T06:40:27;21.00;;;18.08;;
24008;SDS011;12217;50.792;4.372;2023-06-22T06:42:52;20.38;;;18.15;;
24008;SDS011;12217;50.792;4.372;2023-06-22T06:45:19;21.40;;;19.05;;
24008;SDS011;12217;50.792;4.372;2023-06-22T06:47:47;20.60;;;18.00;;
24008;SDS011;12217;50.792;4.372;2023-06-22T06:50:13;21.40;;;16.70;;
24008;SDS011;12217;50.792;4.372;2023-06-22T06:52:39;21.15;;;18.23;;
24008;SDS011;12217;50.792;4.372;2023-06-22T06:55:05;22.77;;;18.42;;
24008;SDS011;12217;50.792;4.372;2023-06-22T06:57:33;22.30;;;19.45;;
24008;SDS011;12217;50.792;4.372;2023-06-22T06:59:59;21.38;;;18.45;;
24008;SDS011;12217;50.792;4.372;2023-06-22T07:02:25;23.10;;;20.60;;
24008;SDS011;12217;50.792;4.372;2023-06-22T07:04:52;21.05;;;18.88;;
24008;SDS011;12217;50.792;4.372;2023-06-22T07:07:20;20.92;;;18.80;;
24008;SDS011;12217;50.792;4.372;2023-06-22T07:09:46;21.83;;;17.73;;
24008;SDS011;12217;50.792;4.372;2023-06-22T07:12:12;20.17;;;18.10;;
24008;SDS011;12217;50.792;4.372;2023-06-22T07:14:37;21.20;;;18.27;;
24008;SDS011;12217;50.792;4.372;2023-06-22T07:17:03;22.70;;;17.27;;
24008;SDS011;12217;50.792;4.372;2023-06-22T07:19:29;21.20;;;18.65;;
24008;SDS011;12217;50.792;4.372;2023-06-22T07:21:56;22.42;;;18.33;;
24008;SDS011;12217;50.792;4.372;2023-06-22T07:24:22;19.88;;;16.25;;
24008;SDS011;12217;50.792;4.372;2023-06-22T07:26:48;18.45;;;16.33;;
24008;SDS011;12217;50.792;4.372;2023-06-22T07:29:15;20.33;;;17.17;;
24008;SDS011;12217;50.792;4.372;2023-06-22T07:31:46;20.58;;;16.75;;
24008;SDS011;12217;50.792;4.372;2023-06-22T07:34:12;21.60;;;18.25;;
24008;SDS011;12217;50.792;4.372;2023-06-22T07:36:38;22.27;;;19.42;;
24008;SDS011;12217;50.792;4.372;2023-06-22T07:39:05;19.98;;;17.98;;
24008;SDS011;12217;50.792;4.372;2023-06-22T07:41:31;18.33;;;16.25;;
24008;SDS011;12217;50.792;4.372;2023-06-22T07:43:57;19.10;;;16.13;;
24008;SDS011;12217;50.792;4.372;2023-06-22T07:46:22;20.13;;;16.75;;
24008;SDS011;12217;50.792;4.372;2023-06-22T07:48:48;19.20;;;16.13;;
24008;SDS011;12217;50.792;4.372;2023-06-22T07:51:14;17.25;;;14.57;;
24008;SDS011;12217;50.792;4.372;2023-06-22T07:53:43;18.08;;;16.17;;
24008;SDS011;12217;50.792;4.372;2023-06-22T07:56:13;20.65;;;16.88;;
24008;SDS011;12217;50.792;4.372;2023-06-22T07:58:39;19.10;;;16.83;;
24008;SDS011;12217;50.792;4.372;2023-06-22T08:01:04;18.08;;;16.38;;
24008;SDS011;12217;50.792;4.372;2023-06-22T08:03:31;18.77;;;16.73;;
24008;SDS011;12217;50.792;4.372;2023-06-22T08:05:57;19.45;;;17.48;;
24008;SDS011;12217;50.792;4.372;2023-06-22T08:08:23;21.23;;;17.77;;
24008;SDS011;12217;50.792;4.372;2023-06-22T08:10:48;17.48;;;14.85;;
24008;SDS011;12217;50.792;4.372;2023-06-22T08:13:14;19.35;;;15.75;;
24008;SDS011;12217;50.792;4.372;2023-06-22T08:15:40;19.17;;;16.90;;
24008;SDS011;12217;50.792;4.372;2023-06-22T08:18:05;18.02;;;14.85;;
24008;SDS011;12217;50.792;4.372;2023-06-22T08:20:31;17.45;;;15.75;;
24008;SDS011;12217;50.792;4.372;2023-06-22T08:22:57;16.25;;;14.57;;
24008;SDS011;12217;50.792;4.372;2023-06-22T08:25:25;16.90;;;15.00;;
24008;SDS011;12217;50.792;4.372;2023-06-22T08:27:52;17.92;;;15.35;;
24008;SDS011;12217;50.792;4.372;2023-06-22T08:30:18;20.98;;;15.45;;
24008;SDS011;12217;50.792;4.372;2023-06-22T08:32:43;17.05;;;14.52;;
24008;SDS011;12217;50.792;4.372;2023-06-22T08:35:09;19.52;;;15.43;;
24008;SDS011;12217;50.792;4.372;2023-06-22T08:37:35;17.48;;;14.45;;
24008;SDS011;12217;50.792;4.372;2023-06-22T08:40:04;20.02;;;17.02;;
24008;SDS011;12217;50.792;4.372;2023-06-22T08:42:35;18.60;;;15.18;;
24008;SDS011;12217;50.792;4.372;2023-06-22T08:45:01;17.88;;;14.82;;
24008;SDS011;12217;50.792;4.372;2023-06-22T08:47:29;20.17;;;15.98;;
24008;SDS011;12217;50.792;4.372;2023-06-22T08:49:58;18.45;;;16.65;;
24008;SDS011;12217;50.792;4.372;2023-06-22T08:52:24;17.65;;;15.77;;
24008;SDS011;12217;50.792;4.372;2023-06-22T08:54:50;20.05;;;17.67;;
24008;SDS011;12217;50.792;4.372;2023-06-22T08:57:16;21.65;;;17.20;;
24008;SDS011;12217;50.792;4.372;2023-06-22T08:59:42;18.23;;;16.10;;
24008;SDS011;12217;50.792;4.372;2023-06-22T09:02:09;17.30;;;15.48;;
24008;SDS011;12217;50.792;4.372;2023-06-22T09:04:34;19.23;;;16.88;;
24008;SDS011;12217;50.792;4.372;2023-06-22T09:07:01;18.30;;;16.23;;
24008;SDS011;12217;50.792;4.372;2023-06-22T09:09:27;18.50;;;16.60;;
24008;SDS011;12217;50.792;4.372;2023-06-22T09:11:53;20.25;;;17.40;;
24008;SDS011;12217;50.792;4.372;2023-06-22T09:14:18;18.45;;;16.13;;
24008;SDS011;12217;50.792;4.372;2023-06-22T09:16:44;18.83;;;15.75;;
24008;SDS011;12217;50.792;4.372;2023-06-22T09:19:10;19.92;;;17.60;;
24008;SDS011;12217;50.792;4.372;2023-06-22T09:21:35;15.82;;;14.13;;
24008;SDS011;12217;50.792;4.372;2023-06-22T09:24:01;16.95;;;15.15;;
24008;SDS011;12217;50.792;4.372;2023-06-22T09:26:27;21.15;;;15.82;;
24008;SDS011;12217;50.792;4.372;2023-06-22T09:28:53;16.25;;;14.32;;
24008;SDS011;12217;50.792;4.372;2023-06-22T09:31:18;15.38;;;13.88;;
24008;SDS011;12217;50.792;4.372;2023-06-22T09:33:50;17.30;;;15.50;;
24008;SDS011;12217;50.792;4.372;2023-06-22T09:36:17;15.85;;;14.13;;
24008;SDS011;12217;50.792;4.372;2023-06-22T09:38:43;16.55;;;14.85;;
24008;SDS011;12217;50.792;4.372;2023-06-22T09:41:08;18.15;;;15.32;;
24008;SDS011;12217;50.792;4.372;2023-06-22T09:43:34;17.35;;;15.50;;
24008;SDS011;12217;50.792;4.372;2023-06-22T09:46:01;18.08;;;15.88;;
24008;SDS011;12217;50.792;4.372;2023-06-22T09:48:27;17.15;;;15.38;;
24008;SDS011;12217;50.792;4.372;2023-06-22T09:50:55;15.40;;;13.45;;
24008;SDS011;12217;50.792;4.372;2023-06-22T09:53:21;16.65;;;14.88;;
24008;SDS011;12217;50.792;4.372;2023-06-22T09:55:46;16.70;;;13.50;;
24008;SDS011;12217;50.792;4.372;2023-06-22T09:58:12;17.52;;;15.05;;
24008;SDS011;12217;50.792;4.372;2023-06-22T10:00:38;19.75;;;16.10;;
24008;SDS011;12217;50.792;4.372;2023-06-22T10:03:03;18.30;;;16.40;;
24008;SDS011;12217;50.792;4.372;2023-06-22T10:05:29;17.67;;;15.98;;
24008;SDS011;12217;50.792;4.372;2023-06-22T10:07:54;20.30;;;18.05;;
24008;SDS011;12217;50.792;4.372;2023-06-22T10:10:20;19.20;;;17.17;;
24008;SDS011;12217;50.792;4.372;2023-06-22T10:12:47;18.60;;;15.90;;
24008;SDS011;12217;50.792;4.372;2023-06-22T10:15:20;19.95;;;16.13;;
24008;SDS011;12217;50.792;4.372;2023-06-22T10:17:46;19.73;;;15.35;;
24008;SDS011;12217;50.792;4.372;2023-06-22T10:20:12;18.85;;;16.77;;
24008;SDS011;12217;50.792;4.372;2023-06-22T10:22:41;20.85;;;17.23;;
24008;SDS011;12217;50.792;4.372;2023-06-22T10:25:09;20.00;;;16.80;;
24008;SDS011;12217;50.792;4.372;2023-06-22T10:27:35;17.98;;;15.77;;
24008;SDS011;12217;50.792;4.372;2023-06-22T10:30:01;17.25;;;14.60;;
24008;SDS011;12217;50.792;4.372;2023-06-22T10:32:27;18.80;;;16.80;;
24008;SDS011;12217;50.792;4.372;2023-06-22T10:34:55;16.27;;;13.90;;
24008;SDS011;12217;50.792;4.372;2023-06-22T10:37:21;19.95;;;17.27;;
24008;SDS011;12217;50.792;4.372;2023-06-22T10:39:47;19.65;;;17.65;;
24008;SDS011;12217;50.792;4.372;2023-06-22T10:42:12;19.85;;;17.73;;
24008;SDS011;12217;50.792;4.372;2023-06-22T10:44:38;17.58;;;15.77;;
24008;SDS011;12217;50.792;4.372;2023-06-22T10:47:06;19.33;;;16.08;;
24008;SDS011;12217;50.792;4.372;2023-06-22T10:49:31;18.42;;;16.00;;
24008;SDS011;12217;50.792;4.372;2023-06-22T10:51:57;18.33;;;16.17;;
24008;SDS011;12217;50.792;4.372;2023-06-22T10:54:23;17.25;;;15.50;;
24008;SDS011;12217;50.792;4.372;2023-06-22T10:56:48;17.02;;;14.95;;
24008;SDS011;12217;50.792;4.372;2023-06-22T10:59:14;17.77;;;15.93;;
24008;SDS011;12217;50.792;4.372;2023-06-22T11:01:40;18.60;;;15.73;;
24008;SDS011;12217;50.792;4.372;2023-06-22T11:04:05;17.75;;;15.88;;
24008;SDS011;12217;50.792;4.372;2023-06-22T11:06:31;22.45;;;19.75;;
24008;SDS011;12217;50.792;4.372;2023-06-22T11:08:56;23.27;;;20.25;;
24008;SDS011;12217;50.792;4.372;2023-06-22T11:11:25;20.13;;;17.98;;
24008;SDS011;12217;50.792;4.372;2023-06-22T11:13:52;25.30;;;22.38;;
24008;SDS011;12217;50.792;4.372;2023-06-22T11:16:18;21.95;;;19.85;;
24008;SDS011;12217;50.792;4.372;2023-06-22T11:18:43;24.88;;;21.95;;
24008;SDS011;12217;50.792;4.372;2023-06-22T11:21:10;32.45;;;24.00;;
24008;SDS011;12217;50.792;4.372;2023-06-22T11:23:36;23.98;;;21.55;;
24008;SDS011;12217;50.792;4.372;2023-06-22T11:26:01;22.88;;;20.45;;
24008;SDS011;12217;50.792;4.372;2023-06-22T11:28:27;26.13;;;23.35;;
24008;SDS011;12217;50.792;4.372;2023-06-22T11:30:52;29.48;;;24.23;;
24008;SDS011;12217;50.792;4.372;2023-06-22T11:33:18;29.50;;;23.58;;
24008;SDS011;12217;50.792;4.372;2023-06-22T11:35:44;25.15;;;21.80;;
24008;SDS011;12217;50.792;4.372;2023-06-22T11:38:09;24.40;;;21.92;;
24008;SDS011;12217;50.792;4.372;2023-06-22T11:40:35;28.02;;;25.08;;
24008;SDS011;12217;50.792;4.372;2023-06-22T11:43:01;26.33;;;22.70;;
24008;SDS011;12217;50.792;4.372;2023-06-22T11:45:26;31.25;;;25.48;;
24008;SDS011;12217;50.792;4.372;2023-06-22T11:47:52;22.42;;;17.80;;
24008;SDS011;12217;50.792;4.372;2023-06-22T11:50:18;28.35;;;25.35;;
24008;SDS011;12217;50.792;4.372;2023-06-22T11:52:43;21.25;;;17.67;;
24008;SDS011;12217;50.792;4.372;2023-06-22T11:55:09;29.38;;;26.30;;
24008;SDS011;12217;50.792;4.372;2023-06-22T11:57:38;28.55;;;24.55;;
24008;SDS011;12217;50.792;4.372;2023-06-22T12:00:17;29.40;;;26.30;;
24008;SDS011;12217;50.792;4.372;2023-06-22T12:02:44;23.77;;;21.23;;
24008;SDS011;12217;50.792;4.372;2023-06-22T12:05:10;27.20;;;24.30;;
24008;SDS011;12217;50.792;4.372;2023-06-22T12:07:36;24.77;;;22.13;;
24008;SDS011;12217;50.792;4.372;2023-06-22T12:10:02;25.65;;;20.25;;
24008;SDS011;12217;50.792;4.372;2023-06-22T12:12:28;23.08;;;20.70;;
24008;SDS011;12217;50.792;4.372;2023-06-22T12:14:54;22.40;;;20.20;;
24008;SDS011;12217;50.792;4.372;2023-06-22T12:17:20;27.65;;;22.90;;
24008;SDS011;12217;50.792;4.372;2023-06-22T12:19:45;29.40;;;25.95;;
24008;SDS011;12217;50.792;4.372;2023-06-22T12:22:11;25.20;;;22.33;;
24008;SDS011;12217;50.792;4.372;2023-06-22T12:24:37;25.58;;;22.98;;
24008;SDS011;12217;50.792;4.372;2023-06-22T12:27:02;25.23;;;19.92;;
24008;SDS011;12217;50.792;4.372;2023-06-22T12:29:30;26.10;;;22.80;;
24008;SDS011;12217;50.792;4.372;2023-06-22T12:31:55;24.63;;;22.20;;
24008;SDS011;12217;50.792;4.372;2023-06-22T12:34:21;24.95;;;22.38;;
24008;SDS011;12217;50.792;4.372;2023-06-22T12:36:47;24.75;;;22.20;;
24008;SDS011;12217;50.792;4.372;2023-06-22T12:39:14;27.55;;;24.75;;
24008;SDS011;12217;50.792;4.372;2023-06-22T12:41:40;26.48;;;23.88;;
24008;SDS011;12217;50.792;4.372;2023-06-22T12:44:05;30.30;;;25.52;;
24008;SDS011;12217;50.792;4.372;2023-06-22T12:46:34;29.63;;;26.63;;
24008;SDS011;12217;50.792;4.372;2023-06-22T12:49:02;29.42;;;26.45;;
24008;SDS011;12217;50.792;4.372;2023-06-22T12:51:29;30.45;;;27.35;;
24008;SDS011;12217;50.792;4.372;2023-06-22T12:53:55;31.48;;;27.70;;
24008;SDS011;12217;50.792;4.372;2023-06-22T12:56:21;28.60;;;25.80;;
24008;SDS011;12217;50.792;4.372;2023-06-22T12:58:46;30.42;;;25.00;;
24008;SDS011;12217;50.792;4.372;2023-06-22T13:01:12;31.05;;;27.85;;
24008;SDS011;12217;50.792;4.372;2023-06-22T13:03:38;29.75;;;26.55;;
24008;SDS011;12217;50.792;4.372;2023-06-22T13:06:04;31.75;;;28.35;;
24008;SDS011;12217;50.792;4.372;2023-06-22T13:08:29;28.27;;;25.25;;
24008;SDS011;12217;50.792;4.372;2023-06-22T13:10:55;35.63;;;31.83;;
24008;SDS011;12217;50.792;4.372;2023-06-22T13:13:23;32.00;;;28.75;;
24008;SDS011;12217;50.792;4.372;2023-06-22T13:15:51;32.63;;;28.65;;
24008;SDS011;12217;50.792;4.372;2023-06-22T13:18:18;29.92;;;26.88;;
24008;SDS011;12217;50.792;4.372;2023-06-22T13:20:43;32.95;;;29.65;;
24008;SDS011;12217;50.792;4.372;2023-06-22T13:23:10;32.97;;;29.42;;
24008;SDS011;12217;50.792;4.372;2023-06-22T13:25:36;29.30;;;26.20;;
24008;SDS011;12217;50.792;4.372;2023-06-22T13:28:01;35.75;;;31.98;;
24008;SDS011;12217;50.792;4.372;2023-06-22T13:30:27;34.45;;;30.75;;
24008;SDS011;12217;50.792;4.372;2023-06-22T13:32:53;35.22;;;31.42;;
24008;SDS011;12217;50.792;4.372;2023-06-22T13:35:18;31.13;;;27.95;;
24008;SDS011;12217;50.792;4.372;2023-06-22T13:37:44;34.22;;;30.42;;
24008;SDS011;12217;50.792;4.372;2023-06-22T13:40:10;31.02;;;27.65;;
24008;SDS011;12217;50.792;4.372;2023-06-22T13:42:36;33.83;;;30.25;;
24008;SDS011;12217;50.792;4.372;2023-06-22T13:45:02;28.60;;;25.70;;
24008;SDS011;12217;50.792;4.372;2023-06-22T13:47:29;34.67;;;30.88;;
24008;SDS011;12217;50.792;4.372;2023-06-22T13:49:55;33.42;;;30.08;;
24008;SDS011;12217;50.792;4.372;2023-06-22T13:52:22;33.38;;;29.98;;
24008;SDS011;12217;50.792;4.372;2023-06-22T13:54:48;32.10;;;28.75;;
24008;SDS011;12217;50.792;4.372;2023-06-22T13:57:13;34.38;;;30.67;;
24008;SDS011;12217;50.792;4.372;2023-06-22T13:59:39;33.15;;;29.83;;
24008;SDS011;12217;50.792;4.372;2023-06-22T14:02:05;30.92;;;27.92;;
24008;SDS011;12217;50.792;4.372;2023-06-22T14:04:31;31.55;;;28.25;;
24008;SDS011;12217;50.792;4.372;2023-06-22T14:06:56;29.92;;;26.83;;
24008;SDS011;12217;50.792;4.372;2023-06-22T14:09:22;32.00;;;28.80;;
24008;SDS011;12217;50.792;4.372;2023-06-22T14:11:48;33.97;;;27.08;;
24008;SDS011;12217;50.792;4.372;2023-06-22T14:14:13;32.55;;;29.20;;
24008;SDS011;12217;50.792;4.372;2023-06-22T14:16:39;30.45;;;27.48;;
24008;SDS011;12217;50.792;4.372;2023-06-22T14:19:05;31.20;;;27.90;;
24008;SDS011;12217;50.792;4.372;2023-06-22T14:21:30;29.70;;;25.80;;
24008;SDS011;12217;50.792;4.372;2023-06-22T14:23:56;31.23;;;28.02;;
24008;SDS011;12217;50.792;4.372;2023-06-22T14:26:21;29.30;;;26.35;;
24008;SDS011;12217;50.792;4.372;2023-06-22T14:28:47;29.27;;;26.27;;
24008;SDS011;12217;50.792;4.372;2023-06-22T14:31:15;30.38;;;27.13;;
24008;SDS011;12217;50.792;4.372;2023-06-22T14:33:48;28.67;;;25.92;;
24008;SDS011;12217;50.792;4.372;2023-06-22T14:36:15;31.45;;;28.02;;
24008;SDS011;12217;50.792;4.372;2023-06-22T14:38:41;30.48;;;27.02;;